createdAt,value
2019-06-26T00:00:42.778Z,99396.40
2019-06-26T00:05:48.302Z,99389.01
2019-06-26T00:10:53.823Z,99389.01
2019-06-26T00:15:59.339Z,99388.38
2019-06-26T00:21:04.856Z,99387.55
2019-06-26T00:26:10.299Z,99384.31
2019-06-26T00:31:15.744Z,99384.31
2019-06-26T00:36:21.251Z,99383.69
2019-06-26T00:41:26.861Z,99385.57
2019-06-26T00:46:32.513Z,99387.76
2019-06-26T00:51:38.062Z,99391.83
2019-06-26T00:56:43.515Z,99384.45
2019-06-26T01:01:49.127Z,99386.30
2019-06-26T01:06:54.646Z,99388.73
2019-06-26T01:12:00.175Z,99384.74
2019-06-26T01:17:05.766Z,99377.95
2019-06-26T01:22:11.380Z,99387.23
2019-06-26T01:27:16.860Z,99382.32
2019-06-26T01:32:22.390Z,99384.51
2019-06-26T01:37:27.834Z,99376.35
2019-06-26T01:42:33.283Z,99382.65
2019-06-26T01:47:38.793Z,99385.37
2019-06-26T01:52:44.398Z,99384.51
2019-06-26T01:57:49.841Z,99385.87
2019-06-26T02:02:55.455Z,99382.32
2019-06-26T02:08:00.971Z,99386.40
2019-06-26T02:13:06.560Z,99380.13
2019-06-26T02:18:29.586Z,99384.21
2019-06-26T02:23:35.115Z,99376.89
2019-06-26T02:28:40.581Z,99371.98
2019-06-26T02:33:46.027Z,99376.59
2019-06-26T02:38:51.496Z,99373.58
2019-06-26T02:43:57.005Z,99368.44
2019-06-26T02:49:02.461Z,99365.09
2019-06-26T02:54:08.000Z,99367.28
2019-06-26T02:59:13.435Z,99365.42
2019-06-26T03:04:18.901Z,99364.80
2019-06-26T03:09:24.401Z,99361.02
2019-06-26T03:14:29.904Z,99357.47
2019-06-26T03:19:35.411Z,99361.55
2019-06-26T03:24:40.939Z,99365.33
2019-06-26T03:29:46.866Z,99364.50
2019-06-26T03:34:52.437Z,99363.63
2019-06-26T03:39:57.980Z,99357.31
2019-06-26T03:45:04.727Z,99353.66
2019-06-26T03:50:10.383Z,99356.58
2019-06-26T03:55:16.472Z,99359.59
2019-06-26T04:00:40.619Z,99358.13
2019-06-26T04:05:46.513Z,99361.97
2019-06-26T04:10:52.001Z,99358.03
2019-06-26T04:15:57.537Z,99360.75
2019-06-26T04:21:03.150Z,99356.88
2019-06-26T04:26:08.683Z,99355.99
2019-06-26T04:31:14.148Z,99361.17
2019-06-26T04:36:19.695Z,99364.16
2019-06-26T04:41:25.250Z,99357.50
2019-06-26T04:46:30.735Z,99359.97
2019-06-26T04:51:36.278Z,99360.56
2019-06-26T04:56:41.770Z,99363.99
2019-06-26T05:01:47.245Z,99360.48
2019-06-26T05:06:52.793Z,99363.92
2019-06-26T05:11:58.300Z,99367.41
2019-06-26T05:17:03.873Z,99364.52
2019-06-26T05:22:09.395Z,99363.09
2019-06-26T05:27:14.882Z,99357.20
2019-06-26T05:32:20.399Z,99360.81
2019-06-26T05:37:25.942Z,99367.84
2019-06-26T05:42:31.408Z,99360.95
2019-06-26T05:47:36.950Z,99365.28
2019-06-26T05:52:43.271Z,99368.31
2019-06-26T05:57:48.824Z,99370.46
2019-06-26T06:02:54.364Z,99369.02
2019-06-26T06:07:59.808Z,99377.98
2019-06-26T06:13:05.364Z,99374.51
2019-06-26T06:18:10.949Z,99369.50
2019-06-26T06:23:18.094Z,99376.23
2019-06-26T06:28:23.768Z,99377.22
2019-06-26T06:33:29.249Z,99379.48
2019-06-26T06:38:34.737Z,99383.09
2019-06-26T06:43:40.269Z,99376.27
2019-06-26T06:48:45.755Z,99377.52
2019-06-26T06:53:51.196Z,99387.96
2019-06-26T06:58:56.642Z,99380.95
2019-06-26T07:04:02.217Z,99379.50
2019-06-26T07:09:08.034Z,99384.12
2019-06-26T07:14:13.501Z,99388.78
2019-06-26T07:19:19.038Z,99395.92
2019-06-26T07:24:24.517Z,99408.75
2019-06-26T07:29:30.105Z,99404.22
2019-06-26T07:34:35.722Z,99411.20
2019-06-26T07:39:41.224Z,99411.80
2019-06-26T07:44:46.746Z,99425.81
2019-06-26T07:49:52.194Z,99423.39
2019-06-26T07:54:57.644Z,99425.05
2019-06-26T08:00:03.146Z,99424.84
2019-06-26T08:05:10.544Z,99431.40
2019-06-26T08:10:16.017Z,99424.06
2019-06-26T08:15:21.505Z,99435.36
2019-06-26T08:20:26.965Z,99432.11
2019-06-26T08:25:32.417Z,99442.67
2019-06-26T08:30:37.897Z,99446.31
2019-06-26T08:35:43.373Z,99437.11
2019-06-26T08:40:48.899Z,99444.13
2019-06-26T08:45:54.362Z,99447.46
2019-06-26T08:51:00.947Z,99452.17
2019-06-26T08:56:06.453Z,99448.59
2019-06-26T09:01:11.924Z,99448.91
2019-06-26T09:06:17.395Z,99449.45
2019-06-26T09:11:22.986Z,99450.86
2019-06-26T09:16:28.544Z,99450.36
2019-06-26T09:21:34.016Z,99451.19
2019-06-26T09:26:39.485Z,99451.19
2019-06-26T09:31:44.965Z,99445.30
2019-06-26T09:36:50.429Z,99439.02
2019-06-26T09:41:55.910Z,99437.42
2019-06-26T09:47:01.537Z,99436.89
2019-06-26T09:52:07.149Z,99442.87
2019-06-26T09:57:12.695Z,99440.44
2019-06-26T10:07:43.470Z,99441.80
2019-06-26T10:12:48.919Z,99442.13
2019-06-26T10:17:54.358Z,99434.78
2019-06-26T10:22:59.911Z,99428.80
2019-06-26T10:28:05.423Z,99425.34
2019-06-26T10:33:10.949Z,99422.61
2019-06-26T10:38:16.381Z,99425.09
2019-06-26T10:43:21.927Z,99422.83
2019-06-26T10:48:27.399Z,99417.76
2019-06-26T10:53:32.828Z,99415.36
2019-06-26T10:58:38.342Z,99414.00
2019-06-26T11:03:43.842Z,99406.86
2019-06-26T11:08:49.288Z,99408.84
2019-06-26T11:13:54.821Z,99404.02
2019-06-26T11:19:00.344Z,99398.57
2019-06-26T11:24:05.781Z,99396.67
2019-06-26T11:29:11.223Z,99397.50
2019-06-26T11:34:16.762Z,99387.23
2019-06-26T11:39:22.252Z,99377.37
2019-06-26T11:44:27.731Z,99376.63
2019-06-26T11:49:33.188Z,99369.81
2019-06-26T11:54:38.638Z,99372.00
2019-06-26T11:59:44.159Z,99365.20
2019-06-26T12:04:49.638Z,99360.58
2019-06-26T12:09:55.318Z,99370.11
2019-06-26T12:15:00.818Z,99363.09
2019-06-26T12:20:18.087Z,99360.90
2019-06-26T12:25:14.205Z,99359.53
2019-06-26T12:30:19.750Z,99347.28
2019-06-26T12:35:25.239Z,99347.90
2019-06-26T12:40:31.496Z,99341.09
2019-06-26T12:45:37.082Z,99347.69
2019-06-26T12:50:42.608Z,99335.97
2019-06-26T12:55:48.047Z,99337.33
2019-06-26T13:00:53.541Z,99331.34
2019-06-26T13:05:59.008Z,99336.02
2019-06-26T13:11:04.560Z,99323.55
2019-06-26T13:16:09.995Z,99332.79
2019-06-26T13:21:15.471Z,99331.72
2019-06-26T13:26:21.136Z,99335.05
2019-06-26T13:31:26.640Z,99331.26
2019-06-26T13:36:32.174Z,99321.73
2019-06-26T13:41:37.758Z,99330.72
2019-06-26T13:46:43.223Z,99316.57
2019-06-26T13:51:49.138Z,99321.27
2019-06-26T13:56:54.613Z,99316.73
2019-06-26T14:02:00.060Z,99324.20
2019-06-26T14:07:08.527Z,99316.63
2019-06-26T14:12:12.711Z,99313.16
2019-06-26T14:17:18.144Z,99306.81
2019-06-26T14:22:23.576Z,99307.92
2019-06-26T14:27:29.032Z,99305.81
2019-06-26T14:32:34.464Z,99303.67
2019-06-26T14:37:39.890Z,99298.22
2019-06-26T14:42:45.372Z,99295.03
2019-06-26T14:47:50.867Z,99278.55
2019-06-26T14:52:56.294Z,99287.91
2019-06-26T14:58:01.733Z,99280.56
2019-06-26T15:03:07.188Z,99272.28
2019-06-26T15:08:12.699Z,99265.79
2019-06-26T15:13:18.228Z,99269.05
2019-06-26T15:18:23.682Z,99268.08
2019-06-26T15:23:29.135Z,99252.20
2019-06-26T15:28:34.658Z,99258.58
2019-06-26T15:33:40.105Z,99246.45
2019-06-26T15:38:45.558Z,99251.61
2019-06-26T15:43:51.092Z,99247.53
2019-06-26T15:48:56.546Z,99243.27
2019-06-26T15:54:02.130Z,99231.22
2019-06-26T15:59:07.565Z,99235.78
2019-06-26T16:04:13.024Z,99232.30
2019-06-26T16:09:18.465Z,99233.55
2019-06-26T16:14:23.985Z,99227.56
2019-06-26T16:19:31.092Z,99226.42
2019-06-26T16:24:36.737Z,99227.75
2019-06-26T16:29:42.624Z,99228.00
2019-06-26T16:34:48.348Z,99220.64
2019-06-26T16:39:54.151Z,99215.55
2019-06-26T16:44:59.596Z,99216.16
2019-06-26T16:50:06.484Z,99217.13
2019-06-26T16:55:12.010Z,99213.61
2019-06-26T17:00:18.984Z,99211.42
2019-06-26T17:05:24.493Z,99214.61
2019-06-26T17:10:30.022Z,99210.45
2019-06-26T17:15:35.746Z,99218.34
2019-06-26T17:20:41.452Z,99212.49
2019-06-26T17:25:46.964Z,99214.97
2019-06-26T17:30:53.040Z,99211.91
2019-06-26T17:35:58.618Z,99209.27
2019-06-26T17:41:04.137Z,99216.82
2019-06-26T17:46:09.669Z,99215.20
2019-06-26T17:51:15.170Z,99224.69
2019-06-26T17:56:20.672Z,99226.55
2019-06-26T18:01:26.263Z,99233.59
2019-06-26T18:06:31.794Z,99228.28
2019-06-26T18:11:37.446Z,99235.77
2019-06-26T18:16:42.947Z,99236.05
2019-06-26T18:21:48.420Z,99232.23
2019-06-26T18:26:53.882Z,99235.28
2019-06-26T18:31:59.392Z,99240.34
2019-06-26T18:37:04.917Z,99243.23
2019-06-26T18:42:10.638Z,99244.13
2019-06-26T18:47:17.768Z,99252.41
2019-06-26T18:52:23.388Z,99253.63
2019-06-26T18:57:28.857Z,99261.65
2019-06-26T19:02:34.333Z,99265.75
2019-06-26T19:07:39.817Z,99268.79
2019-06-26T19:12:45.294Z,99273.39
2019-06-26T19:17:50.786Z,99281.20
2019-06-26T19:22:56.346Z,99283.48
2019-06-26T19:28:01.843Z,99287.27
2019-06-26T19:33:07.341Z,99295.39
2019-06-26T19:38:12.969Z,99305.23
2019-06-26T19:43:18.542Z,99307.38
2019-06-26T19:48:24.086Z,99322.33
2019-06-26T19:53:29.583Z,99324.10
2019-06-26T19:58:35.051Z,99332.59
2019-06-26T20:03:40.606Z,99334.01
2019-06-26T20:08:54.562Z,99330.31
2019-06-26T20:13:53.293Z,99335.17
2019-06-26T20:18:58.766Z,99330.72
2019-06-26T20:24:04.299Z,99336.11
2019-06-26T20:29:09.786Z,99334.62
2019-06-26T20:34:15.243Z,99342.20
2019-06-26T20:39:20.805Z,99339.12
2019-06-26T20:44:26.384Z,99347.23
2019-06-26T20:49:31.924Z,99356.13
2019-06-26T20:54:37.393Z,99363.98
2019-06-26T20:59:42.896Z,99363.41
2019-06-26T21:04:48.383Z,99364.70
2019-06-26T21:09:54.010Z,99377.18
2019-06-26T21:14:59.502Z,99382.53
2019-06-26T21:20:06.376Z,99383.52
2019-06-26T21:25:19.073Z,99392.78
2019-06-26T21:30:20.246Z,99392.95
2019-06-26T21:35:25.875Z,99397.79
2019-06-26T21:40:31.316Z,99406.72
2019-06-26T21:45:36.760Z,99411.27
2019-06-26T21:50:42.224Z,99418.33
2019-06-26T21:55:47.660Z,99422.95
2019-06-26T22:01:10.594Z,99427.25
2019-06-26T22:12:04.735Z,99441.88
2019-06-26T22:17:10.366Z,99445.05
2019-06-26T22:22:16.018Z,99445.80
2019-06-26T22:27:21.571Z,99440.06
2019-06-26T22:32:27.130Z,99431.59
2019-06-26T22:37:32.677Z,99431.52
2019-06-26T22:42:38.241Z,99435.59
2019-06-26T22:47:43.677Z,99436.34
2019-06-26T22:52:50.226Z,99434.45
2019-06-26T22:57:55.700Z,99435.52
2019-06-26T23:03:01.182Z,99442.04
2019-06-26T23:08:06.835Z,99445.30
2019-06-26T23:13:12.455Z,99453.69
2019-06-26T23:18:17.919Z,99462.61
2019-06-26T23:23:23.426Z,99462.31
2019-06-26T23:28:28.896Z,99475.64
2019-06-26T23:33:34.353Z,99478.28
2019-06-26T23:38:39.915Z,99482.91
2019-06-26T23:43:45.374Z,99483.36
2019-06-26T23:48:50.863Z,99482.00
2019-06-26T23:53:56.334Z,99488.80
2019-06-26T23:59:01.826Z,99495.30
